createdAt,value
2024-01-09T05:04:10.131Z,100.00
2024-01-09T05:08:13.326Z,100.00
2024-01-09T05:12:15.893Z,100.00
2024-01-09T05:16:18.493Z,100.00
2024-01-09T05:20:22.464Z,100.00
2024-01-09T05:24:25.133Z,100.00
2024-01-09T05:28:27.738Z,100.00
2024-01-09T05:32:30.403Z,100.00
2024-01-09T05:36:34.400Z,100.00
2024-01-09T05:40:37.046Z,100.00
2024-01-09T05:44:39.755Z,100.00
2024-01-09T05:48:43.403Z,100.00
2024-01-09T05:52:47.523Z,100.00
2024-01-09T05:56:50.215Z,100.00
2024-01-09T06:00:52.758Z,100.00
2024-01-09T06:04:55.410Z,100.00
2024-01-09T06:08:59.352Z,100.00
2024-01-09T06:13:02.009Z,100.00
2024-01-09T06:17:05.760Z,100.00
2024-01-09T06:21:08.574Z,100.00
2024-01-09T06:25:14.636Z,100.00
2024-01-09T06:29:18.407Z,100.00
2024-01-09T06:33:21.172Z,100.00
2024-01-09T06:37:24.072Z,100.00
2024-01-09T06:41:27.980Z,100.00
2024-01-09T06:45:30.582Z,100.00
2024-01-09T06:49:33.229Z,100.00
2024-01-09T06:53:35.949Z,100.00
2024-01-09T06:57:39.901Z,100.00
2024-01-09T07:01:42.494Z,100.00
2024-01-09T07:05:45.648Z,100.00
2024-01-09T07:09:48.317Z,100.00
2024-01-09T07:13:52.446Z,100.00
2024-01-09T07:17:55.413Z,100.00
2024-01-09T07:21:58.672Z,100.00
2024-01-09T07:26:01.504Z,100.00
2024-01-09T07:30:05.850Z,100.00
2024-01-09T07:34:08.605Z,100.00
2024-01-09T07:38:11.413Z,100.00
2024-01-09T07:42:14.659Z,100.00
2024-01-09T07:46:19.446Z,100.00
2024-01-09T07:50:22.161Z,100.00
2024-01-09T07:54:24.630Z,100.00
2024-01-09T07:58:27.892Z,100.00
2024-01-09T08:02:32.926Z,100.00
2024-01-09T08:06:35.926Z,100.00
2024-01-09T08:10:38.615Z,100.00
2024-01-09T08:14:41.223Z,100.00
2024-01-09T08:18:45.224Z,100.00
2024-01-09T08:22:49.197Z,100.00
2024-01-09T08:26:52.056Z,100.00
2024-01-09T08:30:54.986Z,100.00
2024-01-09T08:34:59.110Z,100.00
2024-01-09T08:39:03.322Z,100.00
2024-01-09T08:43:05.961Z,100.00
2024-01-09T08:47:08.699Z,100.00
2024-01-09T08:51:16.248Z,100.00
2024-01-09T08:55:22.470Z,100.00
2024-01-09T08:59:25.191Z,100.00
2024-01-09T09:03:27.942Z,100.00
2024-01-09T09:07:32.280Z,100.00
2024-01-09T09:11:34.944Z,100.00
2024-01-09T09:15:37.613Z,100.00
2024-01-09T09:19:40.326Z,100.00
2024-01-09T09:23:44.448Z,100.00
2024-01-09T09:27:47.108Z,100.00
2024-01-09T09:31:49.690Z,100.00
2024-01-09T09:35:52.338Z,100.00
2024-01-09T09:39:56.380Z,100.00
2024-01-09T09:44:00.357Z,100.00
2024-01-09T09:48:05.128Z,100.00
2024-01-09T09:52:08.171Z,100.00
2024-01-09T09:56:14.937Z,100.00
2024-01-09T10:00:19.216Z,100.00
2024-01-09T10:04:30.468Z,100.00
2024-01-09T10:08:35.783Z,100.00
2024-01-09T10:12:40.779Z,100.00
2024-01-09T10:16:50.735Z,100.00
2024-01-09T10:20:53.516Z,100.00
2024-01-09T10:24:56.285Z,100.00
2024-01-09T10:29:00.774Z,100.00
2024-01-09T10:33:11.606Z,100.00
2024-01-09T10:37:15.669Z,100.00
2024-01-09T10:41:19.430Z,100.00
2024-01-09T10:45:25.586Z,100.00
2024-01-09T10:49:28.866Z,100.00
2024-01-09T10:53:33.311Z,100.00
2024-01-09T10:57:37.737Z,100.00
2024-01-09T11:01:41.716Z,100.00
2024-01-09T11:05:44.688Z,100.00
2024-01-09T11:09:49.219Z,100.00
2024-01-09T11:13:54.803Z,100.00
2024-01-09T11:18:05.811Z,100.00
2024-01-09T11:22:15.633Z,100.00
2024-01-09T11:26:18.330Z,100.00
2024-01-09T11:30:24.702Z,99.58
2024-01-09T11:34:30.256Z,100.00
2024-01-09T11:38:33.081Z,100.00
2024-01-09T11:42:36.946Z,99.60
2024-01-09T11:46:40.775Z,100.00
2024-01-09T11:50:44.975Z,100.00
2024-01-09T11:54:48.328Z,99.41
2024-01-09T11:58:52.524Z,97.96
2024-01-09T12:02:57.074Z,97.86
2024-01-09T12:07:01.140Z,96.22
2024-01-09T12:11:04.522Z,95.70
2024-01-09T12:15:08.047Z,94.85
2024-01-09T12:19:10.766Z,93.95
2024-01-09T12:23:15.089Z,92.33
2024-01-09T12:27:18.264Z,92.07
2024-01-09T12:31:25.114Z,91.44
2024-01-09T12:35:28.040Z,90.75
2024-01-09T12:39:32.448Z,90.11
2024-01-09T12:43:37.659Z,91.08
2024-01-09T12:47:40.367Z,89.13
2024-01-09T12:51:43.412Z,89.43
2024-01-09T12:55:47.557Z,89.86
2024-01-09T12:59:50.328Z,89.50
2024-01-09T13:03:53.277Z,89.64
2024-01-09T13:07:56.055Z,89.65
2024-01-09T13:12:00.639Z,89.09
2024-01-09T13:16:05.048Z,88.25
2024-01-09T13:20:10.000Z,88.60
2024-01-09T13:24:12.765Z,87.25
2024-01-09T13:28:17.112Z,87.23
2024-01-09T13:32:19.795Z,84.54
2024-01-09T13:36:22.475Z,83.37
2024-01-09T13:40:25.729Z,82.10
2024-01-09T13:44:29.644Z,79.90
2024-01-09T13:48:33.009Z,79.42
2024-01-09T13:52:36.148Z,79.19
2024-01-09T13:56:38.879Z,79.77
2024-01-09T14:00:42.837Z,80.18
2024-01-09T14:04:46.084Z,80.68
2024-01-09T14:08:48.575Z,81.03
2024-01-09T14:12:51.414Z,81.35
2024-01-09T14:16:55.425Z,81.97
2024-01-09T14:20:58.103Z,81.63
2024-01-09T14:25:00.892Z,82.61
2024-01-09T14:29:03.612Z,83.13
2024-01-09T14:33:07.780Z,84.16
2024-01-09T14:37:13.629Z,83.48
2024-01-09T14:41:18.982Z,82.01
2024-01-09T14:45:21.806Z,86.04
2024-01-09T14:49:26.167Z,85.97
2024-01-09T14:53:29.278Z,85.39
2024-01-09T14:57:32.511Z,83.01
2024-01-09T15:01:35.141Z,86.39
2024-01-09T15:05:39.185Z,86.76
2024-01-09T15:09:41.998Z,86.63
2024-01-09T15:13:44.683Z,88.41
2024-01-09T15:17:49.144Z,86.68
2024-01-09T15:21:53.373Z,88.24
2024-01-09T15:25:56.058Z,87.34
2024-01-09T15:29:58.679Z,87.17
2024-01-09T15:34:04.947Z,89.71
2024-01-09T15:38:08.988Z,91.63
2024-01-09T15:42:12.259Z,92.62
2024-01-09T15:46:22.586Z,94.72
2024-01-09T15:50:25.772Z,95.85
2024-01-09T15:54:32.403Z,95.92
2024-01-09T15:58:36.557Z,96.21
2024-01-09T16:02:39.225Z,96.29
2024-01-09T16:06:41.897Z,97.22
2024-01-09T16:10:46.105Z,99.31
2024-01-09T16:14:48.761Z,100.00
2024-01-09T16:18:51.565Z,100.00
2024-01-09T16:22:54.333Z,100.00
2024-01-09T16:26:58.367Z,100.00
2024-01-09T16:31:01.061Z,100.00
2024-01-09T16:35:04.194Z,100.00
2024-01-09T16:39:08.506Z,100.00
2024-01-09T16:43:12.538Z,100.00
2024-01-09T16:47:16.428Z,100.00
2024-01-09T16:51:21.739Z,100.00
2024-01-09T16:55:25.706Z,100.00
2024-01-09T16:59:29.778Z,100.00
2024-01-09T17:03:33.027Z,100.00
2024-01-09T17:07:35.739Z,100.00
2024-01-09T17:11:41.542Z,100.00
2024-01-09T17:15:45.727Z,100.00
2024-01-09T17:19:48.645Z,100.00
2024-01-09T17:23:51.326Z,100.00
2024-01-09T17:27:54.161Z,100.00
2024-01-09T17:31:58.289Z,100.00
2024-01-09T17:36:00.997Z,100.00
2024-01-09T17:40:04.360Z,100.00
2024-01-09T17:44:07.045Z,100.00
2024-01-09T17:48:11.275Z,100.00
2024-01-09T17:52:13.984Z,100.00
2024-01-09T17:56:16.789Z,100.00
2024-01-09T18:00:20.368Z,100.00
2024-01-09T18:04:24.513Z,100.00
2024-01-09T18:08:27.167Z,100.00
2024-01-09T18:12:30.974Z,100.00
2024-01-09T18:16:34.940Z,100.00
2024-01-09T18:20:40.900Z,100.00
2024-01-09T18:24:43.507Z,100.00
2024-01-09T18:28:48.272Z,100.00
2024-01-09T18:32:51.083Z,100.00
2024-01-09T18:36:55.150Z,100.00
2024-01-09T18:40:57.800Z,100.00
2024-01-09T18:45:00.434Z,100.00
2024-01-09T18:49:03.625Z,100.00
2024-01-09T18:53:09.712Z,100.00
2024-01-09T18:57:12.436Z,100.00
2024-01-09T19:01:15.391Z,100.00
2024-01-09T19:05:18.127Z,100.00
2024-01-09T19:09:23.391Z,100.00
2024-01-09T19:13:26.263Z,100.00
2024-01-09T19:17:28.906Z,100.00
2024-01-09T19:21:31.564Z,100.00
2024-01-09T19:25:35.831Z,100.00
2024-01-09T19:29:38.547Z,100.00
2024-01-09T19:33:41.273Z,100.00
2024-01-09T19:37:46.028Z,100.00
2024-01-09T19:41:50.232Z,100.00
2024-01-09T19:45:52.880Z,100.00
2024-01-09T19:49:55.750Z,100.00
2024-01-09T19:53:59.163Z,100.00
2024-01-09T19:58:03.845Z,100.00
2024-01-09T20:02:07.673Z,100.00
2024-01-09T20:06:19.211Z,100.00
2024-01-09T20:10:21.912Z,100.00
2024-01-09T20:14:27.439Z,100.00
2024-01-09T20:18:30.396Z,100.00
2024-01-09T20:22:33.219Z,100.00
2024-01-09T20:26:36.613Z,100.00
2024-01-09T20:30:41.423Z,100.00
2024-01-09T20:34:44.177Z,100.00
2024-01-09T20:38:47.114Z,100.00
2024-01-09T20:42:49.659Z,100.00
2024-01-09T20:46:54.103Z,100.00
2024-01-09T20:50:57.503Z,100.00
2024-01-09T20:55:03.868Z,100.00
2024-01-09T20:59:06.594Z,100.00
2024-01-09T21:03:10.639Z,100.00
2024-01-09T21:07:14.301Z,100.00
2024-01-09T21:11:17.275Z,100.00
2024-01-09T21:15:22.864Z,100.00
2024-01-09T21:19:27.856Z,100.00
2024-01-09T21:23:35.640Z,100.00
2024-01-09T21:27:44.603Z,100.00
2024-01-09T21:31:48.073Z,100.00
2024-01-09T21:35:52.087Z,100.00
2024-01-09T21:39:55.022Z,100.00
2024-01-09T21:43:57.659Z,100.00
2024-01-09T21:48:00.292Z,100.00
2024-01-09T21:52:05.036Z,100.00
2024-01-09T21:56:07.877Z,100.00
